CheckWX is a tool to help pilots better visualize weather data.  It is not intended as a substitute for an official pre-flight weather briefing.

14:50:56 UTC

KLNR METAR
Tri-County Regional Airport
Lone Rock, Wisconsin, USA
Current

55 mins ago

KLNR 221356Z AUTO 11006KT 10SM CLR 18/09 A2992 RMK AO2 SLP125 T01830089
Observed
Apr-22 @ 13:56 UTC
Wind
  • 110° at 6 KTS
Visibility
10 SM
Flight Rules
VFR
Cloud Levels
  • Clear skies
Temperature
18°C / 64°F
Dewpoint
C / 48°F
Humidity
56%
Altimeter
29.92" Hg
Pressure
1013.22 hPa
Previous

2 hours ago

KLNR 221256Z AUTO 09007KT 10SM CLR 15/09 A2994 RMK AO2 SLP132 T01500089
Observed
Apr-22 @ 12:56 UTC
Wind
  • 090° at 7 KTS
Visibility
10 SM
Flight Rules
VFR
Cloud Levels
  • Clear skies
Temperature
15°C / 59°F
Dewpoint
C / 48°F
Humidity
68%
Altimeter
29.94" Hg
Pressure
1013.92 hPa
Previous

3 hours ago

KLNR 221156Z AUTO 09008KT 10SM CLR 14/08 A2994 RMK AO2 SLP130 T01440078 10189 20122 53001
Observed
Apr-22 @ 11:56 UTC
Wind
  • 090° at 8 KTS
Visibility
10 SM
Flight Rules
VFR
Cloud Levels
  • Clear skies
Temperature
14°C / 57°F
Dewpoint
C / 46°F
Humidity
67%
Altimeter
29.94" Hg
Pressure
1013.92 hPa